createdAt,value
2023-05-07T04:40:30.230Z,79.70
2023-05-07T04:42:59.575Z,81.10
2023-05-07T04:45:29.365Z,81.20
2023-05-07T04:47:59.150Z,80.60
2023-05-07T04:50:29.111Z,80.70
2023-05-07T04:53:01.263Z,80.40
2023-05-07T04:55:30.789Z,80.60
2023-05-07T04:58:00.164Z,80.50
2023-05-07T05:00:29.619Z,80.70
2023-05-07T05:02:59.087Z,80.20
2023-05-07T05:05:28.520Z,80.80
2023-05-07T05:07:57.957Z,80.70
2023-05-07T05:10:29.121Z,80.60
2023-05-07T05:12:58.540Z,81.00
2023-05-07T05:15:27.990Z,81.20
2023-05-07T05:17:57.361Z,81.80
2023-05-07T05:20:26.878Z,82.10
2023-05-07T05:22:56.630Z,82.10
2023-05-07T05:25:25.977Z,81.90
2023-05-07T05:27:55.339Z,82.00
2023-05-07T05:30:24.751Z,82.20
2023-05-07T05:32:54.260Z,81.80
2023-05-07T05:35:23.712Z,81.80
2023-05-07T05:37:53.260Z,81.60
2023-05-07T05:40:23.054Z,81.10
2023-05-07T05:42:52.420Z,81.00
2023-05-07T05:45:22.583Z,81.40
2023-05-07T05:47:52.058Z,81.30
2023-05-07T05:50:21.853Z,81.40
2023-05-07T05:52:51.566Z,81.40
2023-05-07T05:55:20.935Z,81.70
2023-05-07T05:57:50.957Z,81.90
2023-05-07T06:00:20.567Z,81.80
2023-05-07T06:02:50.173Z,82.40
2023-05-07T06:05:20.018Z,82.50
2023-05-07T06:07:54.463Z,82.60
2023-05-07T06:10:23.982Z,82.50
2023-05-07T06:12:53.568Z,82.10
2023-05-07T06:15:23.363Z,82.60
2023-05-07T06:17:54.151Z,82.60
2023-05-07T06:20:23.564Z,82.60
2023-05-07T06:22:53.059Z,82.50
2023-05-07T06:25:22.626Z,82.70
2023-05-07T06:27:54.035Z,82.80
2023-05-07T06:30:23.576Z,82.80
2023-05-07T06:32:53.372Z,82.60
2023-05-07T06:35:22.740Z,82.70
2023-05-07T06:37:52.203Z,82.80
2023-05-07T06:40:22.034Z,83.00
2023-05-07T06:42:51.429Z,83.00
2023-05-07T06:45:20.964Z,82.80
2023-05-07T06:47:50.371Z,82.90
2023-05-07T06:50:21.659Z,83.00
2023-05-07T06:52:51.437Z,83.40
2023-05-07T06:55:22.012Z,83.40
2023-05-07T06:57:51.445Z,83.40
2023-05-07T07:00:23.010Z,83.70
2023-05-07T07:02:52.682Z,83.90
2023-05-07T07:05:22.254Z,83.70
2023-05-07T07:08:01.585Z,83.90
2023-05-07T07:10:31.965Z,83.80
2023-05-07T07:13:01.662Z,84.10
2023-05-07T07:15:31.060Z,83.80
2023-05-07T07:18:00.494Z,83.70
2023-05-07T07:20:29.891Z,83.80
2023-05-07T07:22:59.638Z,83.70
2023-05-07T07:25:29.049Z,83.70
2023-05-07T07:27:58.858Z,83.30
2023-05-07T07:30:29.209Z,83.20
2023-05-07T07:33:03.076Z,83.10
2023-05-07T07:35:47.320Z,83.10
2023-05-07T07:38:16.841Z,82.80
2023-05-07T07:40:46.728Z,83.20
2023-05-07T07:43:16.212Z,83.30
2023-05-07T07:45:45.610Z,83.50
2023-05-07T07:48:15.161Z,83.60
2023-05-07T07:50:46.255Z,83.60
2023-05-07T07:53:16.978Z,82.50
2023-05-07T07:55:51.398Z,82.20
2023-05-07T07:58:22.445Z,82.70
2023-05-07T08:00:53.063Z,83.50
2023-05-07T08:03:23.798Z,83.60
2023-05-07T08:05:53.752Z,83.40
2023-05-07T08:08:23.162Z,83.50
2023-05-07T08:10:53.099Z,83.80
2023-05-07T08:13:24.861Z,83.60
2023-05-07T08:15:55.553Z,83.80
2023-05-07T08:18:27.813Z,83.80
2023-05-07T08:20:57.284Z,84.20
2023-05-07T08:23:26.718Z,83.30
2023-05-07T08:25:56.454Z,82.40
2023-05-07T08:28:27.558Z,82.40
2023-05-07T08:30:59.551Z,82.80
2023-05-07T08:33:28.937Z,83.00
2023-05-07T08:35:59.356Z,82.50
2023-05-07T08:38:29.805Z,82.20
2023-05-07T08:40:59.528Z,81.80
2023-05-07T08:43:31.716Z,81.20
2023-05-07T08:46:02.785Z,80.90
2023-05-07T08:48:33.055Z,81.60
2023-05-07T08:51:03.054Z,82.20
2023-05-07T08:53:32.828Z,82.40
2023-05-07T08:56:02.461Z,82.80
2023-05-07T08:58:31.848Z,82.70
2023-05-07T09:01:02.342Z,82.10
2023-05-07T09:03:31.740Z,82.10
2023-05-07T09:06:02.143Z,81.90
2023-05-07T09:08:31.664Z,81.70
2023-05-07T09:11:01.088Z,81.80
2023-05-07T09:13:31.001Z,82.50
2023-05-07T09:16:01.549Z,82.80
2023-05-07T09:18:30.908Z,83.10
2023-05-07T09:21:00.312Z,83.30
2023-05-07T09:23:29.679Z,83.30
2023-05-07T09:26:04.280Z,82.80
2023-05-07T09:28:34.245Z,82.00
2023-05-07T09:31:04.040Z,82.30
2023-05-07T09:33:33.414Z,82.00
2023-05-07T09:36:06.522Z,81.30
2023-05-07T09:38:36.841Z,79.90
2023-05-07T09:41:09.653Z,80.90
2023-05-07T09:43:39.845Z,81.90
2023-05-07T09:46:16.564Z,82.30
2023-05-07T09:48:46.747Z,82.60
2023-05-07T09:51:24.858Z,82.40
2023-05-07T09:53:56.500Z,82.50
2023-05-07T09:56:25.942Z,82.70
2023-05-07T09:58:57.535Z,82.80
2023-05-07T10:01:27.265Z,82.90
2023-05-07T10:03:57.336Z,82.80
2023-05-07T10:06:28.754Z,82.50
2023-05-07T10:08:59.551Z,82.00
2023-05-07T10:11:29.322Z,82.10
2023-05-07T10:13:59.005Z,81.00
2023-05-07T10:16:28.765Z,80.70
2023-05-07T10:18:59.195Z,80.20
2023-05-07T10:21:31.162Z,79.90
2023-05-07T10:24:09.284Z,80.70
2023-05-07T10:26:38.914Z,81.40
2023-05-07T10:29:13.947Z,81.40
2023-05-07T10:31:43.791Z,80.50
2023-05-07T10:34:14.515Z,81.20
2023-05-07T10:36:44.925Z,80.50
2023-05-07T10:39:14.370Z,78.50
2023-05-07T10:41:44.470Z,78.40
2023-05-07T10:44:14.243Z,77.60
2023-05-07T10:46:43.614Z,77.90
2023-05-07T10:49:14.451Z,78.40
2023-05-07T10:51:43.909Z,76.80
2023-05-07T10:54:13.441Z,76.40
2023-05-07T10:56:46.758Z,74.90
2023-05-07T10:59:30.726Z,73.60
2023-05-07T11:02:05.903Z,73.60
2023-05-07T11:04:37.418Z,72.40
2023-05-07T11:07:12.746Z,74.70
2023-05-07T11:10:04.154Z,76.00
2023-05-07T11:12:40.439Z,76.40
2023-05-07T11:15:14.209Z,77.30
2023-05-07T11:17:57.113Z,77.10
2023-05-07T11:20:46.081Z,76.40
2023-05-07T11:23:34.542Z,77.20
2023-05-07T11:26:06.582Z,78.80
2023-05-07T11:28:46.579Z,78.80
2023-05-07T11:31:16.022Z,78.20
2023-05-07T11:33:46.765Z,79.10
2023-05-07T11:36:16.653Z,79.80
2023-05-07T11:38:46.002Z,79.50
2023-05-07T11:41:15.595Z,79.60
2023-05-07T11:44:01.504Z,80.10
2023-05-07T11:46:31.441Z,79.70
2023-05-07T11:49:01.006Z,78.20
2023-05-07T11:51:30.360Z,77.90
2023-05-07T11:53:59.790Z,77.30
2023-05-07T11:56:29.202Z,78.60
2023-05-07T11:58:58.548Z,78.80
2023-05-07T12:01:27.924Z,77.70
2023-05-07T12:03:57.447Z,77.80
2023-05-07T12:06:26.963Z,76.80
2023-05-07T12:08:57.273Z,78.10
2023-05-07T12:11:27.721Z,79.10
2023-05-07T12:13:59.860Z,79.20
2023-05-07T12:16:30.609Z,75.90
2023-05-07T12:19:01.546Z,71.70
2023-05-07T12:21:31.250Z,70.60
2023-05-07T12:24:00.635Z,70.30
2023-05-07T12:26:30.262Z,70.80
2023-05-07T12:29:02.651Z,69.40
2023-05-07T12:31:32.136Z,70.30
2023-05-07T12:34:01.599Z,70.80
2023-05-07T12:36:39.558Z,73.00
2023-05-07T12:39:12.859Z,72.20
2023-05-07T12:41:58.588Z,74.50
2023-05-07T12:44:38.005Z,75.30
2023-05-07T12:47:08.609Z,74.20
2023-05-07T12:49:40.427Z,75.30
2023-05-07T12:52:09.871Z,76.00
2023-05-07T12:54:41.145Z,77.10
2023-05-07T12:57:11.442Z,77.90
2023-05-07T12:59:41.453Z,78.70
2023-05-07T13:02:11.538Z,79.10
2023-05-07T13:04:41.187Z,79.20
2023-05-07T13:07:10.544Z,78.30
2023-05-07T13:09:39.979Z,78.90
2023-05-07T13:12:09.685Z,79.80
2023-05-07T13:14:39.057Z,79.40
2023-05-07T13:17:09.529Z,79.30
2023-05-07T13:19:40.139Z,79.60
2023-05-07T13:22:09.660Z,79.80
2023-05-07T13:24:39.004Z,79.90
2023-05-07T13:27:08.346Z,80.10
2023-05-07T13:29:38.197Z,80.50
2023-05-07T13:32:07.701Z,80.70
2023-05-07T13:34:37.208Z,80.60
2023-05-07T13:37:11.106Z,78.30
2023-05-07T13:39:41.253Z,78.20
2023-05-07T13:42:10.612Z,78.90
2023-05-07T13:44:39.948Z,78.90
2023-05-07T13:47:09.312Z,78.90
2023-05-07T13:49:39.103Z,79.50
2023-05-07T13:52:08.529Z,79.90
2023-05-07T13:54:37.871Z,79.80
2023-05-07T13:57:07.264Z,79.80
2023-05-07T13:59:36.785Z,79.80
2023-05-07T14:02:06.177Z,79.90
2023-05-07T14:04:35.708Z,79.70
2023-05-07T14:07:05.047Z,79.50
2023-05-07T14:09:34.380Z,79.70
2023-05-07T14:12:04.188Z,79.50
2023-05-07T14:14:33.526Z,79.70
2023-05-07T14:17:03.349Z,80.00
2023-05-07T14:19:36.663Z,80.30
2023-05-07T14:22:06.000Z,80.60
2023-05-07T14:24:38.533Z,80.40
2023-05-07T14:27:08.920Z,79.80
2023-05-07T14:29:38.871Z,78.40
2023-05-07T14:32:08.320Z,77.60
2023-05-07T14:34:37.680Z,78.20
2023-05-07T14:37:07.685Z,78.90
2023-05-07T14:39:37.111Z,79.00
2023-05-07T14:42:06.468Z,78.10
2023-05-07T14:44:36.242Z,77.90
2023-05-07T14:47:05.774Z,78.10
2023-05-07T14:49:35.234Z,78.20
2023-05-07T14:52:04.743Z,78.20
2023-05-07T14:57:08.129Z,77.50
2023-05-07T14:59:37.901Z,77.60
2023-05-07T15:02:08.250Z,77.00
2023-05-07T15:04:38.290Z,75.60
2023-05-07T15:07:08.049Z,76.60
2023-05-07T15:09:37.951Z,77.10
2023-05-07T15:12:07.742Z,77.40
2023-05-07T15:14:38.456Z,76.20
2023-05-07T15:17:07.966Z,76.10
2023-05-07T15:19:38.327Z,75.20
2023-05-07T15:22:09.483Z,72.00
2023-05-07T15:24:39.085Z,68.00
2023-05-07T15:27:08.800Z,69.20
2023-05-07T15:29:38.336Z,66.60
2023-05-07T15:32:07.859Z,68.80
2023-05-07T15:34:37.719Z,69.10
2023-05-07T15:37:07.280Z,69.60
2023-05-07T15:39:36.676Z,70.30
2023-05-07T15:42:06.131Z,71.40
2023-05-07T15:44:36.960Z,73.10
2023-05-07T15:47:06.716Z,73.90
2023-05-07T15:49:36.071Z,73.00
2023-05-07T15:52:06.967Z,70.60
2023-05-07T15:54:36.602Z,70.90
2023-05-07T15:57:06.894Z,71.10
2023-05-07T15:59:38.212Z,70.30
2023-05-07T16:02:07.704Z,69.90
2023-05-07T16:04:37.349Z,69.70
2023-05-07T16:07:07.874Z,70.20
2023-05-07T16:09:37.786Z,70.40
2023-05-07T16:12:07.453Z,72.70
2023-05-07T16:14:36.862Z,72.60
2023-05-07T16:17:06.387Z,72.40
2023-05-07T16:19:35.874Z,72.30
2023-05-07T16:22:05.439Z,71.10
2023-05-07T16:24:35.097Z,66.60
2023-05-07T16:27:04.500Z,67.40
2023-05-07T16:29:33.821Z,69.00
2023-05-07T16:32:03.581Z,68.60
2023-05-07T16:34:32.940Z,68.70
2023-05-07T16:37:02.347Z,67.80
2023-05-07T16:39:32.296Z,67.10
2023-05-07T16:42:02.004Z,69.30
2023-05-07T16:44:31.329Z,68.00
2023-05-07T16:47:00.833Z,69.00
2023-05-07T16:49:30.577Z,69.80
2023-05-07T16:51:59.951Z,69.70
2023-05-07T16:54:29.373Z,68.10
2023-05-07T16:56:59.115Z,68.60
2023-05-07T16:59:30.340Z,69.00
2023-05-07T17:01:59.963Z,67.60
2023-05-07T17:04:30.386Z,69.00
2023-05-07T17:07:00.762Z,68.60
2023-05-07T17:09:30.252Z,68.30
2023-05-07T17:11:59.575Z,67.40
2023-05-07T17:14:28.916Z,67.00
2023-05-07T17:16:59.396Z,67.70
2023-05-07T17:19:29.339Z,67.50
2023-05-07T17:22:00.205Z,67.40
2023-05-07T17:24:31.067Z,66.30
2023-05-07T17:27:01.496Z,66.80
2023-05-07T17:29:31.943Z,66.40
2023-05-07T17:32:01.570Z,67.20
2023-05-07T17:34:32.678Z,65.80
2023-05-07T17:37:02.150Z,66.20
2023-05-07T17:39:32.022Z,65.80
2023-05-07T17:42:02.394Z,65.50
2023-05-07T17:44:31.882Z,65.10
2023-05-07T17:47:02.489Z,65.20
2023-05-07T17:49:32.189Z,63.90
2023-05-07T17:52:01.954Z,64.60
2023-05-07T17:54:31.958Z,64.90
2023-05-07T17:57:01.311Z,63.90
2023-05-07T17:59:30.915Z,64.00
2023-05-07T18:02:00.316Z,63.20
2023-05-07T18:04:29.813Z,61.30
2023-05-07T18:06:59.193Z,60.80
2023-05-07T18:09:28.546Z,61.10
2023-05-07T18:11:59.024Z,60.80
2023-05-07T18:14:28.475Z,62.60
2023-05-07T18:16:57.812Z,59.80
2023-05-07T18:19:27.861Z,59.90
2023-05-07T18:21:58.855Z,60.80
2023-05-07T23:50:22.168Z,55.70
2023-05-07T23:52:51.940Z,56.30
2023-05-07T23:55:21.552Z,55.10
2023-05-07T23:57:51.932Z,56.30
